• Join FlightAware (Why Join?)
  • Login
  • US Flag 
02:27AM EST


 

Airport Tracker/Info


-or-


 

Live Flight TrackerFlight Track Log ✈ CTL311 ✈ 02-Jul-2013 ✈ KJXN - KEYE

Flight Track Log - Related Links

Times and Time Zones

All times are in EDT time to prevent confusion due to time zone crossing. See the CTL311 flight status page for this flight to view local times or setup timezone preferences in your user account.

Time Position Orientation Groundspeed Altitude Reporting Facility
EDT Latitude Longitude Course Direction KTS MPH feet Rate Location/Type
06:56PM 42.2100 -84.4806 215° Southwest 159 183 2,700  Level Chicago Center
06:57PM 42.1744 -84.5139 215° Southwest 156 180 3,300 480 Climbing Chicago Center
06:58PM 42.1383 -84.5419 210° Southwest 153 176 3,800 480 Climbing Chicago Center
06:59PM 42.1014 -84.5717 211° Southwest 153 176 4,400 480 Climbing Chicago Center
07:00PM 42.0667 -84.6025 213° Southwest 152 175 4,800 420 Climbing Chicago Center
07:01PM 42.0258 -84.6414 215° Southwest 150 173 5,300 360 Climbing Chicago Center
07:02PM 41.9894 -84.6744 214° Southwest 155 178 5,600 240 Climbing Chicago Center
07:03PM 41.9522 -84.7039 210° Southwest 155 178 5,900 180 Climbing Chicago Center
07:04PM 41.9200 -84.7403 220° Southwest 152 175 6,000  Climbing Chicago Center
07:05PM 41.8828 -84.7717 212° Southwest 157 181 5,900 -60 Descending Chicago Center
07:06PM 41.8456 -84.8019 211° Southwest 157 181 5,900  Level Chicago Center
07:07PM 41.7994 -84.8369 210° Southwest 158 182 5,900  Level Chicago Center
07:08PM 41.7608 -84.8664 210° Southwest 159 183 5,900  Level Chicago Center
07:09PM 41.7236 -84.8983 213° Southwest 159 183 5,900  Level Chicago Center
07:10PM 41.6861 -84.9283 211° Southwest 157 181 6,000  Climbing Chicago Center
07:11PM 41.6489 -84.9575 210° Southwest 155 178 5,900 -60 Descending Chicago Center
07:12PM 41.6103 -84.9881 211° Southwest 159 183 5,900  Level Chicago Center
07:13PM 41.5647 -85.0222 209° Southwest 157 181 5,900  Level Chicago Center
07:14PM 41.5258 -85.0503 208° Southwest 157 181 6,000  Climbing Chicago Center
07:16PM 41.4864 -85.0781 208° Southwest 158 182 5,900 -60 Descending Chicago Center
07:17PM 41.4489 -85.1100 213° Southwest 159 183 5,900  Level Chicago Center
07:18PM 41.4122 -85.1425 214° Southwest 158 182 5,900  Level Chicago Center
07:19PM 41.3747 -85.1703 209° Southwest 157 181 6,000  Climbing Chicago Center
07:20PM 41.3347 -85.1919 202° Southwest 155 178 5,900 -60 Descending Chicago Center
07:21PM 41.2892 -85.2261 209° Southwest 156 180 5,900  Level Chicago Center
07:22PM 41.2494 -85.2525 207° Southwest 158 182 5,900  Level Chicago Center
07:23PM 41.2153 -85.2883 218° Southwest 157 181 5,900 -60 Level Chicago Center
07:24PM 41.1761 -85.3169 209° Southwest 158 182 5,800  Descending Chicago Center
07:25PM 41.1378 -85.3458 210° Southwest 159 183 5,900 60 Climbing Chicago Center
07:26PM 41.0992 -85.3711 206° Southwest 157 181 6,000  Climbing Chicago Center
07:27PM 41.0542 -85.4056 210° Southwest 156 180 6,000 -60 Level Chicago Center
07:28PM 41.0153 -85.4344 209° Southwest 159 183 5,900 -60 Descending Chicago Center
07:29PM 40.9758 -85.4681 213° Southwest 161 185 5,900  Level Chicago Center
07:30PM 40.9378 -85.4931 206° Southwest 160 184 5,900  Level Chicago Center
07:31PM 40.8950 -85.5306 214° Southwest 161 185 5,900  Level Chicago Center
07:32PM 40.8606 -85.5489 202° Southwest 159 183 6,000 60 Climbing Chicago Center
07:33PM 40.8183 -85.5847 213° Southwest 156 180 6,100  Climbing Chicago Center
07:34PM 40.7781 -85.6156 210° Southwest 157 181 6,100  Level Chicago Center
07:35PM 40.7397 -85.6414 207° Southwest 160 184 6,100 -60 Level Chicago Center
07:36PM 40.6978 -85.6667 205° Southwest 162 186 6,000 -120 Descending Chicago Center
07:37PM 40.6608 -85.6978 213° Southwest 162 186 5,900  Descending Chicago Center
07:39PM 40.5953 -85.7408 207° Southwest 161 185 6,000  Climbing Indianapolis Center
07:39PM 40.5794 -85.7511 206° Southwest 161 185 5,900  Descending Chicago Center
07:40PM 40.5356 -85.7819 208° Southwest 167 192 6,000 60 Climbing Chicago Center
07:41PM 40.4950 -85.8156 212° Southwest 168 193 6,100  Climbing Chicago Center
07:42PM 40.4544 -85.8436 208° Southwest 166 191 6,000 -300 Descending Chicago Center
07:43PM 40.4089 -85.8736 207° Southwest 165 190 5,500 -540 Descending Chicago Center
07:44PM 40.3669 -85.9044 209° Southwest 176 203 4,900 -660 Descending Chicago Center
07:45PM 40.3194 -85.9361 207° Southwest 180 207 4,200 -480 Descending Chicago Center
07:47PM 40.2653 -85.9778 210° Southwest 186 214 3,900 -180 Descending Chicago Center
07:48PM 40.2244 -86.0078 209° Southwest 178 205 3,900 -60 Level Chicago Center
07:49PM 40.1850 -86.0397 212° Southwest 172 198 3,800 -360 Descending Chicago Center
07:50PM 40.1444 -86.0800 217° Southwest 175 201 3,200 -480 Descending Chicago Center
07:51PM 40.1022 -86.1206 216° Southwest 183 211 2,900 -300 Descending Chicago Center
07:52PM 40.0492 -86.1575 208° Southwest 183 211 2,700 -300 Descending Chicago Center
07:53PM 40.0033 -86.1867 206° Southwest 183 211 2,300 -180 Descending Chicago Center
07:54PM 39.9619 -86.2136 207° Southwest 176 203 2,400  Climbing Chicago Center
07:55PM 39.9264 -86.2369 207° Southwest 161 185 2,300 -480 Descending Chicago Center
07:56PM 39.8964 -86.2533 203° Southwest 136 157 1,500 -420 Descending Chicago Center
07:57PM 39.8656 -86.2711 204° Southwest 133 153 1,500  Level Chicago Center